sensor_id;sensor_type;location;lat;lon;timestamp;pressure;altitude;pressure_sealevel;temperature;humidity
72896;BME280;61036;53.224;6.554;2023-05-29T00:00:32;102537.47;;;13.45;100.00
72896;BME280;61036;53.224;6.554;2023-05-29T00:02:58;102543.97;;;13.57;100.00
72896;BME280;61036;53.224;6.554;2023-05-29T00:05:23;102539.13;;;13.62;100.00
72896;BME280;61036;53.224;6.554;2023-05-29T00:07:49;102542.34;;;13.54;100.00
72896;BME280;61036;53.224;6.554;2023-05-29T00:10:16;102536.84;;;13.70;100.00
72896;BME280;61036;53.224;6.554;2023-05-29T00:12:42;102544.50;;;13.47;100.00
72896;BME280;61036;53.224;6.554;2023-05-29T00:15:08;102548.00;;;13.80;100.00
72896;BME280;61036;53.224;6.554;2023-05-29T00:17:35;102544.09;;;13.84;100.00
72896;BME280;61036;53.224;6.554;2023-05-29T00:20:02;102542.00;;;13.44;100.00
72896;BME280;61036;53.224;6.554;2023-05-29T00:22:31;102543.88;;;13.28;100.00
72896;BME280;61036;53.224;6.554;2023-05-29T00:24:56;102539.47;;;13.41;100.00
72896;BME280;61036;53.224;6.554;2023-05-29T00:27:22;102539.16;;;13.32;100.00
72896;BME280;61036;53.224;6.554;2023-05-29T00:29:47;102532.50;;;13.37;100.00
72896;BME280;61036;53.224;6.554;2023-05-29T00:32:13;102539.44;;;12.95;100.00
72896;BME280;61036;53.224;6.554;2023-05-29T00:34:38;102539.94;;;13.18;100.00
72896;BME280;61036;53.224;6.554;2023-05-29T00:37:04;102548.50;;;13.56;100.00
72896;BME280;61036;53.224;6.554;2023-05-29T00:39:30;102549.34;;;13.42;100.00
72896;BME280;61036;53.224;6.554;2023-05-29T00:41:56;102547.50;;;13.43;100.00
72896;BME280;61036;53.224;6.554;2023-05-29T00:44:22;102553.06;;;13.25;100.00
72896;BME280;61036;53.224;6.554;2023-05-29T00:46:49;102554.78;;;13.42;100.00
72896;BME280;61036;53.224;6.554;2023-05-29T00:49:16;102563.06;;;13.23;100.00
72896;BME280;61036;53.224;6.554;2023-05-29T00:51:43;102563.53;;;12.84;100.00
72896;BME280;61036;53.224;6.554;2023-05-29T00:54:12;102569.50;;;13.07;100.00
72896;BME280;61036;53.224;6.554;2023-05-29T00:56:40;102573.22;;;13.20;100.00
72896;BME280;61036;53.224;6.554;2023-05-29T00:59:09;102574.91;;;13.07;100.00
72896;BME280;61036;53.224;6.554;2023-05-29T01:01:36;102570.97;;;13.28;100.00
72896;BME280;61036;53.224;6.554;2023-05-29T01:04:03;102568.16;;;13.14;100.00
72896;BME280;61036;53.224;6.554;2023-05-29T01:06:32;102567.13;;;13.16;100.00
72896;BME280;61036;53.224;6.554;2023-05-29T01:08:58;102560.97;;;13.44;100.00
72896;BME280;61036;53.224;6.554;2023-05-29T01:22:16;102582.97;;;13.84;100.00
72896;BME280;61036;53.224;6.554;2023-05-29T01:27:32;102570.50;;;13.96;100.00
72896;BME280;61036;53.224;6.554;2023-05-29T01:29:59;102571.06;;;13.57;100.00
72896;BME280;61036;53.224;6.554;2023-05-29T01:32:28;102557.50;;;14.01;100.00
72896;BME280;61036;53.224;6.554;2023-05-29T01:34:54;102554.81;;;13.57;100.00
72896;BME280;61036;53.224;6.554;2023-05-29T01:37:20;102563.91;;;13.56;100.00
72896;BME280;61036;53.224;6.554;2023-05-29T01:39:46;102553.38;;;13.51;100.00
72896;BME280;61036;53.224;6.554;2023-05-29T01:42:11;102556.56;;;13.58;100.00
72896;BME280;61036;53.224;6.554;2023-05-29T01:44:37;102560.84;;;13.00;100.00
72896;BME280;61036;53.224;6.554;2023-05-29T01:47:04;102558.41;;;13.71;100.00
72896;BME280;61036;53.224;6.554;2023-05-29T01:49:31;102561.84;;;13.75;100.00
72896;BME280;61036;53.224;6.554;2023-05-29T01:51:57;102566.66;;;13.70;100.00
72896;BME280;61036;53.224;6.554;2023-05-29T01:54:23;102564.03;;;13.22;100.00
72896;BME280;61036;53.224;6.554;2023-05-29T01:56:49;102564.94;;;13.69;100.00
72896;BME280;61036;53.224;6.554;2023-05-29T01:59:15;102567.22;;;13.61;100.00
72896;BME280;61036;53.224;6.554;2023-05-29T02:01:41;102573.38;;;13.48;100.00
72896;BME280;61036;53.224;6.554;2023-05-29T02:04:07;102580.59;;;13.34;100.00
72896;BME280;61036;53.224;6.554;2023-05-29T02:06:33;102581.00;;;13.42;100.00
72896;BME280;61036;53.224;6.554;2023-05-29T02:08:59;102584.94;;;13.36;100.00
72896;BME280;61036;53.224;6.554;2023-05-29T02:11:25;102581.28;;;13.21;100.00
72896;BME280;61036;53.224;6.554;2023-05-29T02:13:51;102586.00;;;13.64;100.00
72896;BME280;61036;53.224;6.554;2023-05-29T02:16:18;102586.19;;;13.91;100.00
72896;BME280;61036;53.224;6.554;2023-05-29T02:18:46;102585.22;;;13.62;100.00
72896;BME280;61036;53.224;6.554;2023-05-29T02:21:12;102583.13;;;13.67;100.00
72896;BME280;61036;53.224;6.554;2023-05-29T02:23:38;102588.72;;;13.64;100.00
72896;BME280;61036;53.224;6.554;2023-05-29T02:26:04;102579.50;;;14.11;100.00
72896;BME280;61036;53.224;6.554;2023-05-29T02:28:30;102583.72;;;13.86;100.00
72896;BME280;61036;53.224;6.554;2023-05-29T02:30:56;102581.72;;;13.60;100.00
72896;BME280;61036;53.224;6.554;2023-05-29T02:33:22;102576.66;;;13.54;100.00
72896;BME280;61036;53.224;6.554;2023-05-29T02:35:47;102587.41;;;13.09;100.00
72896;BME280;61036;53.224;6.554;2023-05-29T02:38:13;102583.78;;;13.40;100.00
72896;BME280;61036;53.224;6.554;2023-05-29T02:40:40;102583.13;;;13.67;100.00
72896;BME280;61036;53.224;6.554;2023-05-29T02:43:06;102577.25;;;13.89;100.00
72896;BME280;61036;53.224;6.554;2023-05-29T02:45:32;102583.69;;;14.02;100.00
72896;BME280;61036;53.224;6.554;2023-05-29T02:47:59;102579.69;;;13.93;100.00
72896;BME280;61036;53.224;6.554;2023-05-29T02:50:26;102581.59;;;13.77;100.00
72896;BME280;61036;53.224;6.554;2023-05-29T02:52:51;102579.34;;;14.14;100.00
72896;BME280;61036;53.224;6.554;2023-05-29T02:55:17;102573.72;;;14.17;100.00
72896;BME280;61036;53.224;6.554;2023-05-29T02:57:43;102574.47;;;13.90;100.00
72896;BME280;61036;53.224;6.554;2023-05-29T03:00:09;102572.94;;;14.29;100.00
72896;BME280;61036;53.224;6.554;2023-05-29T03:02:36;102572.06;;;14.29;100.00
72896;BME280;61036;53.224;6.554;2023-05-29T03:05:02;102571.38;;;14.39;100.00
72896;BME280;61036;53.224;6.554;2023-05-29T03:07:28;102574.06;;;13.82;100.00
72896;BME280;61036;53.224;6.554;2023-05-29T03:09:55;102570.50;;;13.96;100.00
72896;BME280;61036;53.224;6.554;2023-05-29T03:12:22;102572.81;;;14.16;100.00
72896;BME280;61036;53.224;6.554;2023-05-29T03:14:47;102573.31;;;14.09;100.00
72896;BME280;61036;53.224;6.554;2023-05-29T03:17:13;102570.31;;;14.13;100.00
72896;BME280;61036;53.224;6.554;2023-05-29T03:19:39;102575.28;;;14.35;100.00
72896;BME280;61036;53.224;6.554;2023-05-29T03:22:05;102579.03;;;13.90;100.00
72896;BME280;61036;53.224;6.554;2023-05-29T03:24:32;102583.22;;;14.38;100.00
72896;BME280;61036;53.224;6.554;2023-05-29T03:27:01;102579.72;;;14.51;100.00
72896;BME280;61036;53.224;6.554;2023-05-29T03:29:31;102571.78;;;14.62;100.00
72896;BME280;61036;53.224;6.554;2023-05-29T03:31:57;102570.81;;;14.20;100.00
72896;BME280;61036;53.224;6.554;2023-05-29T03:34:27;102573.78;;;14.01;100.00
72896;BME280;61036;53.224;6.554;2023-05-29T03:36:57;102575.47;;;14.32;100.00
72896;BME280;61036;53.224;6.554;2023-05-29T03:39:24;102581.16;;;14.13;100.00
72896;BME280;61036;53.224;6.554;2023-05-29T03:41:50;102582.75;;;14.75;100.00
72896;BME280;61036;53.224;6.554;2023-05-29T03:44:17;102579.81;;;14.21;100.00
72896;BME280;61036;53.224;6.554;2023-05-29T03:46:43;102589.50;;;14.25;100.00
72896;BME280;61036;53.224;6.554;2023-05-29T03:49:08;102592.13;;;14.12;100.00
72896;BME280;61036;53.224;6.554;2023-05-29T03:51:35;102590.16;;;14.00;100.00
72896;BME280;61036;53.224;6.554;2023-05-29T03:54:01;102589.63;;;14.66;100.00
72896;BME280;61036;53.224;6.554;2023-05-29T03:56:27;102589.03;;;14.18;100.00
72896;BME280;61036;53.224;6.554;2023-05-29T03:58:53;102589.88;;;14.18;100.00
72896;BME280;61036;53.224;6.554;2023-05-29T04:01:19;102597.28;;;14.45;100.00
72896;BME280;61036;53.224;6.554;2023-05-29T04:03:45;102593.50;;;14.62;100.00
72896;BME280;61036;53.224;6.554;2023-05-29T04:06:13;102603.13;;;14.53;100.00
72896;BME280;61036;53.224;6.554;2023-05-29T04:08:39;102604.75;;;14.70;100.00
72896;BME280;61036;53.224;6.554;2023-05-29T04:11:04;102603.75;;;14.28;100.00
72896;BME280;61036;53.224;6.554;2023-05-29T04:13:30;102609.25;;;14.12;100.00
72896;BME280;61036;53.224;6.554;2023-05-29T04:15:55;102610.72;;;14.47;100.00
72896;BME280;61036;53.224;6.554;2023-05-29T04:18:21;102608.03;;;14.32;100.00
72896;BME280;61036;53.224;6.554;2023-05-29T04:20:47;102607.66;;;14.53;100.00
72896;BME280;61036;53.224;6.554;2023-05-29T04:23:13;102604.75;;;14.56;100.00
72896;BME280;61036;53.224;6.554;2023-05-29T04:25:42;102609.22;;;14.57;100.00
72896;BME280;61036;53.224;6.554;2023-05-29T04:28:09;102607.06;;;14.62;100.00
72896;BME280;61036;53.224;6.554;2023-05-29T04:30:36;102610.38;;;14.53;100.00
72896;BME280;61036;53.224;6.554;2023-05-29T04:33:02;102612.78;;;14.14;100.00
72896;BME280;61036;53.224;6.554;2023-05-29T04:35:28;102611.81;;;14.73;100.00
72896;BME280;61036;53.224;6.554;2023-05-29T04:38:01;102620.16;;;14.70;100.00
72896;BME280;61036;53.224;6.554;2023-05-29T04:40:30;102618.19;;;14.43;100.00
72896;BME280;61036;53.224;6.554;2023-05-29T04:42:57;102619.69;;;14.77;100.00
72896;BME280;61036;53.224;6.554;2023-05-29T04:45:27;102628.88;;;14.89;100.00
72896;BME280;61036;53.224;6.554;2023-05-29T04:47:53;102624.22;;;14.48;100.00
72896;BME280;61036;53.224;6.554;2023-05-29T04:50:21;102623.06;;;14.81;100.00
72896;BME280;61036;53.224;6.554;2023-05-29T04:52:49;102633.66;;;14.57;100.00
72896;BME280;61036;53.224;6.554;2023-05-29T04:55:14;102630.94;;;15.27;100.00
72896;BME280;61036;53.224;6.554;2023-05-29T04:57:41;102629.44;;;15.08;100.00
72896;BME280;61036;53.224;6.554;2023-05-29T05:00:09;102623.94;;;14.67;100.00
72896;BME280;61036;53.224;6.554;2023-05-29T05:02:37;102619.75;;;14.90;100.00
72896;BME280;61036;53.224;6.554;2023-05-29T05:05:03;102630.28;;;15.09;100.00
72896;BME280;61036;53.224;6.554;2023-05-29T05:07:29;102633.00;;;15.09;100.00
72896;BME280;61036;53.224;6.554;2023-05-29T05:09:54;102637.47;;;15.10;100.00
72896;BME280;61036;53.224;6.554;2023-05-29T05:12:24;102632.97;;;14.82;100.00
72896;BME280;61036;53.224;6.554;2023-05-29T05:14:50;102635.69;;;15.23;100.00
72896;BME280;61036;53.224;6.554;2023-05-29T05:17:15;102637.56;;;15.77;100.00
72896;BME280;61036;53.224;6.554;2023-05-29T05:19:42;102632.19;;;16.28;100.00
72896;BME280;61036;53.224;6.554;2023-05-29T05:22:08;102634.91;;;16.28;100.00
72896;BME280;61036;53.224;6.554;2023-05-29T05:24:33;102633.59;;;16.59;100.00
72896;BME280;61036;53.224;6.554;2023-05-29T05:27:02;102627.97;;;16.99;100.00
72896;BME280;61036;53.224;6.554;2023-05-29T05:29:28;102637.16;;;16.98;100.00
72896;BME280;61036;53.224;6.554;2023-05-29T05:31:54;102635.88;;;16.14;100.00
72896;BME280;61036;53.224;6.554;2023-05-29T05:34:20;102636.88;;;16.77;100.00
72896;BME280;61036;53.224;6.554;2023-05-29T05:36:46;102645.59;;;16.31;100.00
72896;BME280;61036;53.224;6.554;2023-05-29T05:39:13;102625.09;;;16.64;100.00
72896;BME280;61036;53.224;6.554;2023-05-29T05:41:43;102643.09;;;16.28;100.00
72896;BME280;61036;53.224;6.554;2023-05-29T05:44:09;102632.78;;;16.96;100.00
72896;BME280;61036;53.224;6.554;2023-05-29T05:46:43;102639.78;;;16.49;100.00
72896;BME280;61036;53.224;6.554;2023-05-29T05:49:10;102637.09;;;16.61;100.00
72896;BME280;61036;53.224;6.554;2023-05-29T05:51:36;102644.38;;;16.22;100.00
72896;BME280;61036;53.224;6.554;2023-05-29T05:54:01;102642.44;;;16.25;100.00
72896;BME280;61036;53.224;6.554;2023-05-29T05:56:28;102643.41;;;16.23;100.00
72896;BME280;61036;53.224;6.554;2023-05-29T05:58:53;102638.72;;;16.26;100.00
72896;BME280;61036;53.224;6.554;2023-05-29T06:01:20;102639.25;;;16.18;100.00
72896;BME280;61036;53.224;6.554;2023-05-29T06:03:46;102645.69;;;16.42;100.00
72896;BME280;61036;53.224;6.554;2023-05-29T06:06:12;102649.06;;;15.68;100.00
72896;BME280;61036;53.224;6.554;2023-05-29T06:08:40;102651.66;;;16.09;100.00
72896;BME280;61036;53.224;6.554;2023-05-29T06:11:07;102643.06;;;16.15;100.00
72896;BME280;61036;53.224;6.554;2023-05-29T06:13:35;102651.91;;;16.32;100.00
72896;BME280;61036;53.224;6.554;2023-05-29T06:16:09;102643.38;;;17.00;100.00
72896;BME280;61036;53.224;6.554;2023-05-29T06:18:35;102653.00;;;17.30;100.00
72896;BME280;61036;53.224;6.554;2023-05-29T06:21:01;102648.72;;;16.89;100.00
72896;BME280;61036;53.224;6.554;2023-05-29T06:23:28;102655.50;;;16.58;100.00
72896;BME280;61036;53.224;6.554;2023-05-29T06:25:53;102646.22;;;16.73;100.00
72896;BME280;61036;53.224;6.554;2023-05-29T06:28:19;102659.84;;;16.73;99.93
72896;BME280;61036;53.224;6.554;2023-05-29T06:30:45;102664.63;;;17.32;98.18
72896;BME280;61036;53.224;6.554;2023-05-29T06:33:12;102682.19;;;16.65;100.00
72896;BME280;61036;53.224;6.554;2023-05-29T06:35:39;102671.06;;;16.81;100.00
72896;BME280;61036;53.224;6.554;2023-05-29T06:38:05;102684.00;;;16.27;100.00
72896;BME280;61036;53.224;6.554;2023-05-29T06:40:31;102678.72;;;16.89;100.00
72896;BME280;61036;53.224;6.554;2023-05-29T06:42:57;102684.78;;;16.16;100.00
72896;BME280;61036;53.224;6.554;2023-05-29T06:45:36;102680.44;;;16.39;100.00
72896;BME280;61036;53.224;6.554;2023-05-29T06:48:02;102685.81;;;16.79;100.00
72896;BME280;61036;53.224;6.554;2023-05-29T06:50:27;102692.19;;;16.39;100.00
72896;BME280;61036;53.224;6.554;2023-05-29T06:52:55;102698.63;;;16.38;100.00
72896;BME280;61036;53.224;6.554;2023-05-29T06:55:34;102693.63;;;17.09;100.00
72896;BME280;61036;53.224;6.554;2023-05-29T06:58:00;102691.22;;;17.04;100.00
72896;BME280;61036;53.224;6.554;2023-05-29T07:00:26;102697.84;;;16.23;100.00
72896;BME280;61036;53.224;6.554;2023-05-29T07:03:10;102687.19;;;16.84;100.00
72896;BME280;61036;53.224;6.554;2023-05-29T07:05:36;102692.72;;;17.08;100.00
72896;BME280;61036;53.224;6.554;2023-05-29T07:08:01;102694.63;;;16.82;100.00
72896;BME280;61036;53.224;6.554;2023-05-29T07:10:27;102703.44;;;16.99;100.00
72896;BME280;61036;53.224;6.554;2023-05-29T07:12:53;102708.41;;;17.30;100.00
72896;BME280;61036;53.224;6.554;2023-05-29T07:15:19;102710.09;;;17.81;96.71
72896;BME280;61036;53.224;6.554;2023-05-29T07:17:45;102715.72;;;17.91;98.12
72896;BME280;61036;53.224;6.554;2023-05-29T07:20:18;102707.19;;;17.34;97.99
72896;BME280;61036;53.224;6.554;2023-05-29T07:22:47;102703.69;;;17.69;97.50
72896;BME280;61036;53.224;6.554;2023-05-29T07:25:12;102705.00;;;18.12;94.00
72896;BME280;61036;53.224;6.554;2023-05-29T07:27:38;102702.06;;;18.26;94.98
72896;BME280;61036;53.224;6.554;2023-05-29T07:30:04;102710.28;;;18.02;98.99
72896;BME280;61036;53.224;6.554;2023-05-29T07:32:32;102701.97;;;18.50;94.08
72896;BME280;61036;53.224;6.554;2023-05-29T07:34:58;102709.56;;;18.35;93.60
72896;BME280;61036;53.224;6.554;2023-05-29T07:37:23;102694.75;;;18.95;94.81
72896;BME280;61036;53.224;6.554;2023-05-29T07:39:49;102702.38;;;18.68;96.08
72896;BME280;61036;53.224;6.554;2023-05-29T07:42:34;102707.63;;;16.79;96.71
72896;BME280;61036;53.224;6.554;2023-05-29T07:45:01;102704.63;;;18.63;96.37
72896;BME280;61036;53.224;6.554;2023-05-29T07:47:27;102704.09;;;18.35;93.89
72896;BME280;61036;53.224;6.554;2023-05-29T07:49:53;102704.88;;;18.60;92.64
72896;BME280;61036;53.224;6.554;2023-05-29T07:52:25;102707.69;;;18.36;96.52
72896;BME280;61036;53.224;6.554;2023-05-29T07:54:52;102715.69;;;17.67;93.51
72896;BME280;61036;53.224;6.554;2023-05-29T07:57:18;102712.00;;;18.27;92.85
72896;BME280;61036;53.224;6.554;2023-05-29T07:59:44;102716.13;;;18.44;96.03
72896;BME280;61036;53.224;6.554;2023-05-29T08:02:10;102719.56;;;17.88;96.66
72896;BME280;61036;53.224;6.554;2023-05-29T08:05:12;102717.03;;;18.09;92.52
72896;BME280;61036;53.224;6.554;2023-05-29T08:07:39;102716.94;;;18.22;91.09
72896;BME280;61036;53.224;6.554;2023-05-29T08:10:05;102714.63;;;18.75;94.65
72896;BME280;61036;53.224;6.554;2023-05-29T08:12:31;102708.00;;;18.20;98.62
72896;BME280;61036;53.224;6.554;2023-05-29T08:14:59;102710.34;;;18.71;91.70
72896;BME280;61036;53.224;6.554;2023-05-29T08:17:25;102716.00;;;19.14;90.10
72896;BME280;61036;53.224;6.554;2023-05-29T08:19:50;102717.09;;;19.23;89.06
72896;BME280;61036;53.224;6.554;2023-05-29T08:22:16;102714.22;;;19.91;89.68
72896;BME280;61036;53.224;6.554;2023-05-29T08:24:42;102719.66;;;20.02;86.74
72896;BME280;61036;53.224;6.554;2023-05-29T08:27:07;102712.72;;;20.82;86.27
72896;BME280;61036;53.224;6.554;2023-05-29T08:29:33;102729.28;;;20.17;88.01
72896;BME280;61036;53.224;6.554;2023-05-29T08:31:59;102719.00;;;18.07;93.65
72896;BME280;61036;53.224;6.554;2023-05-29T08:34:24;102726.41;;;18.98;93.37
72896;BME280;61036;53.224;6.554;2023-05-29T08:36:50;102728.59;;;18.70;90.93
72896;BME280;61036;53.224;6.554;2023-05-29T08:39:17;102722.16;;;18.71;90.98
72896;BME280;61036;53.224;6.554;2023-05-29T08:42:04;102729.78;;;19.90;90.21
72896;BME280;61036;53.224;6.554;2023-05-29T08:44:33;102731.38;;;19.27;88.82
72896;BME280;61036;53.224;6.554;2023-05-29T08:47:02;102744.91;;;19.62;87.21
72896;BME280;61036;53.224;6.554;2023-05-29T08:49:40;102727.28;;;19.21;87.92
72896;BME280;61036;53.224;6.554;2023-05-29T08:52:19;102730.06;;;19.76;88.86
72896;BME280;61036;53.224;6.554;2023-05-29T08:54:45;102742.09;;;18.96;89.35
72896;BME280;61036;53.224;6.554;2023-05-29T08:57:12;102734.50;;;19.11;92.59
72896;BME280;61036;53.224;6.554;2023-05-29T08:59:41;102730.88;;;19.33;93.11
72896;BME280;61036;53.224;6.554;2023-05-29T09:02:07;102737.66;;;19.61;91.65
72896;BME280;61036;53.224;6.554;2023-05-29T09:04:33;102737.06;;;19.69;88.55
72896;BME280;61036;53.224;6.554;2023-05-29T09:06:59;102736.75;;;19.17;87.44
72896;BME280;61036;53.224;6.554;2023-05-29T09:09:29;102740.34;;;19.29;87.25
72896;BME280;61036;53.224;6.554;2023-05-29T09:11:57;102749.28;;;19.42;87.71
72896;BME280;61036;53.224;6.554;2023-05-29T09:14:50;102744.81;;;20.28;83.10
72896;BME280;61036;53.224;6.554;2023-05-29T09:17:15;102752.47;;;19.58;84.88
72896;BME280;61036;53.224;6.554;2023-05-29T09:19:41;102745.34;;;19.90;82.53
72896;BME280;61036;53.224;6.554;2023-05-29T09:22:14;102738.91;;;20.65;82.33
72896;BME280;61036;53.224;6.554;2023-05-29T09:24:46;102735.38;;;20.21;83.64
72896;BME280;61036;53.224;6.554;2023-05-29T09:27:12;102735.00;;;19.16;85.63
72896;BME280;61036;53.224;6.554;2023-05-29T09:29:42;102737.19;;;20.10;85.95
72896;BME280;61036;53.224;6.554;2023-05-29T09:32:10;102736.53;;;20.39;87.83
72896;BME280;61036;53.224;6.554;2023-05-29T09:34:37;102742.00;;;21.12;81.83
72896;BME280;61036;53.224;6.554;2023-05-29T09:37:04;102740.50;;;20.14;85.65
72896;BME280;61036;53.224;6.554;2023-05-29T09:39:45;102738.56;;;22.29;78.14
72896;BME280;61036;53.224;6.554;2023-05-29T09:42:11;102735.66;;;21.42;73.50
72896;BME280;61036;53.224;6.554;2023-05-29T09:44:37;102747.97;;;20.44;78.55
72896;BME280;61036;53.224;6.554;2023-05-29T09:47:03;102735.41;;;20.63;76.97
72896;BME280;61036;53.224;6.554;2023-05-29T09:49:31;102733.59;;;22.43;69.24
72896;BME280;61036;53.224;6.554;2023-05-29T09:51:57;102731.25;;;21.60;74.17
72896;BME280;61036;53.224;6.554;2023-05-29T09:54:27;102738.47;;;20.69;82.84
72896;BME280;61036;53.224;6.554;2023-05-29T09:56:57;102734.22;;;21.07;85.74
72896;BME280;61036;53.224;6.554;2023-05-29T09:59:24;102734.28;;;20.96;89.22
72896;BME280;61036;53.224;6.554;2023-05-29T10:02:04;102729.66;;;21.58;79.65
72896;BME280;61036;53.224;6.554;2023-05-29T10:04:31;102731.72;;;21.75;80.08
72896;BME280;61036;53.224;6.554;2023-05-29T10:07:05;102734.13;;;21.18;81.44
72896;BME280;61036;53.224;6.554;2023-05-29T10:09:41;102734.03;;;22.28;74.63
72896;BME280;61036;53.224;6.554;2023-05-29T10:12:11;102734.88;;;21.71;71.38
72896;BME280;61036;53.224;6.554;2023-05-29T10:14:37;102727.25;;;21.94;72.82
72896;BME280;61036;53.224;6.554;2023-05-29T10:17:07;102737.72;;;21.50;76.55
72896;BME280;61036;53.224;6.554;2023-05-29T10:19:36;102738.72;;;21.49;77.42
72896;BME280;61036;53.224;6.554;2023-05-29T10:22:04;102733.47;;;21.05;82.28
72896;BME280;61036;53.224;6.554;2023-05-29T10:24:31;102724.09;;;20.77;79.29
72896;BME280;61036;53.224;6.554;2023-05-29T10:26:57;102737.41;;;20.82;79.02
72896;BME280;61036;53.224;6.554;2023-05-29T10:32:21;102726.44;;;21.43;76.99
72896;BME280;61036;53.224;6.554;2023-05-29T10:35:28;102722.78;;;20.71;85.57
72896;BME280;61036;53.224;6.554;2023-05-29T10:38:02;102733.38;;;21.47;82.37
72896;BME280;61036;53.224;6.554;2023-05-29T10:40:34;102742.47;;;20.23;85.06
72896;BME280;61036;53.224;6.554;2023-05-29T10:43:00;102740.50;;;20.14;84.36
72896;BME280;61036;53.224;6.554;2023-05-29T10:50:36;102729.59;;;20.03;85.33
72896;BME280;61036;53.224;6.554;2023-05-29T10:53:02;102735.72;;;20.48;79.41
72896;BME280;61036;53.224;6.554;2023-05-29T10:55:35;102732.56;;;20.64;83.12
72896;BME280;61036;53.224;6.554;2023-05-29T10:58:27;102747.66;;;21.10;82.67
72896;BME280;61036;53.224;6.554;2023-05-29T11:00:57;102731.72;;;21.75;79.35
72896;BME280;61036;53.224;6.554;2023-05-29T11:03:31;102734.63;;;22.03;76.76
72896;BME280;61036;53.224;6.554;2023-05-29T11:06:17;102731.03;;;20.81;79.42
72896;BME280;61036;53.224;6.554;2023-05-29T11:08:58;102731.16;;;20.70;80.62
72896;BME280;61036;53.224;6.554;2023-05-29T11:13:54;102732.91;;;21.11;79.31
72896;BME280;61036;53.224;6.554;2023-05-29T11:18:57;102731.47;;;21.07;73.77
72896;BME280;61036;53.224;6.554;2023-05-29T11:21:43;102744.75;;;21.12;76.07
72896;BME280;61036;53.224;6.554;2023-05-29T11:24:27;102748.38;;;20.61;79.09
72896;BME280;61036;53.224;6.554;2023-05-29T11:26:55;102732.16;;;20.37;85.30
72896;BME280;61036;53.224;6.554;2023-05-29T11:29:29;102741.63;;;21.57;86.70
72896;BME280;61036;53.224;6.554;2023-05-29T11:32:01;102743.22;;;20.46;83.19
72896;BME280;61036;53.224;6.554;2023-05-29T11:34:29;102746.91;;;20.77;83.00
72896;BME280;61036;53.224;6.554;2023-05-29T11:36:59;102732.38;;;21.58;79.59
72896;BME280;61036;53.224;6.554;2023-05-29T11:39:26;102733.72;;;21.92;83.58
72896;BME280;61036;53.224;6.554;2023-05-29T11:41:51;102743.63;;;20.63;77.98
72896;BME280;61036;53.224;6.554;2023-05-29T11:44:18;102738.13;;;20.42;80.94
72896;BME280;61036;53.224;6.554;2023-05-29T11:46:44;102732.81;;;20.08;81.64
72896;BME280;61036;53.224;6.554;2023-05-29T11:49:10;102734.56;;;20.93;83.14
72896;BME280;61036;53.224;6.554;2023-05-29T11:51:35;102728.81;;;20.96;76.44
72896;BME280;61036;53.224;6.554;2023-05-29T11:54:02;102733.34;;;20.76;74.80
72896;BME280;61036;53.224;6.554;2023-05-29T11:56:28;102728.22;;;21.73;77.66
72896;BME280;61036;53.224;6.554;2023-05-29T11:58:55;102736.41;;;21.13;78.60
72896;BME280;61036;53.224;6.554;2023-05-29T12:01:26;102742.56;;;20.75;80.11
72896;BME280;61036;53.224;6.554;2023-05-29T12:03:53;102729.53;;;20.67;78.97
72896;BME280;61036;53.224;6.554;2023-05-29T12:06:32;102729.25;;;20.91;77.52
72896;BME280;61036;53.224;6.554;2023-05-29T12:09:00;102739.31;;;20.07;83.17
72896;BME280;61036;53.224;6.554;2023-05-29T12:11:26;102747.22;;;20.42;83.77
72896;BME280;61036;53.224;6.554;2023-05-29T12:14:01;102730.88;;;21.04;81.01
72896;BME280;61036;53.224;6.554;2023-05-29T12:16:32;102741.81;;;20.31;82.37
72896;BME280;61036;53.224;6.554;2023-05-29T12:18:59;102727.69;;;21.39;81.43
72896;BME280;61036;53.224;6.554;2023-05-29T12:21:26;102742.69;;;20.94;82.04
72896;BME280;61036;53.224;6.554;2023-05-29T12:23:53;102732.66;;;20.63;83.86
72896;BME280;61036;53.224;6.554;2023-05-29T12:26:22;102739.47;;;20.26;82.21
72896;BME280;61036;53.224;6.554;2023-05-29T12:28:49;102733.47;;;19.57;85.39
72896;BME280;61036;53.224;6.554;2023-05-29T12:31:29;102732.09;;;20.90;83.95
72896;BME280;61036;53.224;6.554;2023-05-29T12:34:00;102733.63;;;21.04;79.29
72896;BME280;61036;53.224;6.554;2023-05-29T12:36:26;102733.88;;;20.49;81.81
72896;BME280;61036;53.224;6.554;2023-05-29T12:38:52;102734.25;;;20.23;79.22
72896;BME280;61036;53.224;6.554;2023-05-29T12:41:26;102726.19;;;21.25;75.33
72896;BME280;61036;53.224;6.554;2023-05-29T12:43:56;102737.25;;;20.20;77.31
72896;BME280;61036;53.224;6.554;2023-05-29T12:46:23;102749.66;;;20.57;76.72
72896;BME280;61036;53.224;6.554;2023-05-29T12:48:55;102740.56;;;20.56;74.73
72896;BME280;61036;53.224;6.554;2023-05-29T12:51:27;102737.19;;;21.75;76.55
72896;BME280;61036;53.224;6.554;2023-05-29T12:53:52;102731.78;;;20.83;76.22
72896;BME280;61036;53.224;6.554;2023-05-29T12:56:22;102743.94;;;20.48;77.53
72896;BME280;61036;53.224;6.554;2023-05-29T12:58:50;102734.84;;;19.74;76.75
72896;BME280;61036;53.224;6.554;2023-05-29T13:01:16;102731.25;;;21.30;80.94
72896;BME280;61036;53.224;6.554;2023-05-29T13:03:42;102731.59;;;20.54;72.70
72896;BME280;61036;53.224;6.554;2023-05-29T13:06:11;102722.31;;;20.66;78.10
72896;BME280;61036;53.224;6.554;2023-05-29T13:08:37;102729.25;;;22.01;77.33
72896;BME280;61036;53.224;6.554;2023-05-29T13:11:03;102727.94;;;21.76;81.74
72896;BME280;61036;53.224;6.554;2023-05-29T13:13:28;102726.31;;;20.83;77.68
72896;BME280;61036;53.224;6.554;2023-05-29T13:15:54;102732.41;;;20.13;84.30